Time;durP1;ratioP1;P1;durP2;ratioP2;P2;SDS_P1;SDS_P2;PMS_P1;PMS_P2;Temp;Humidity;BMP_temperature;BMP_pressure;BME280_temperature;BME280_humidity;BME280_pressure;Samples;Min_cycle;Max_cycle;Signal;HPM_P1;HPM_P2
2021/07/06 00:01:21;;;;;;;4.27;3.97;;;22.10;99.90;;;;;;5059748;28;21027;-67
2021/07/06 00:03:48;;;;;;;3.63;3.33;;;22.10;99.90;;;;;;5060773;28;20462;-65
2021/07/06 00:06:15;;;;;;;3.70;3.40;;;22.20;99.90;;;;;;5069404;28;20960;-66
2021/07/06 00:08:43;;;;;;;2.97;2.70;;;22.10;99.90;;;;;;5064550;28;21070;-66
2021/07/06 00:11:10;;;;;;;3.17;2.97;;;22.10;99.90;;;;;;5071603;28;20477;-65
2021/07/06 00:13:37;;;;;;;3.53;3.23;;;22.10;99.90;;;;;;5058535;28;20470;-66
2021/07/06 00:16:04;;;;;;;3.27;3.00;;;22.10;99.90;;;;;;5066477;28;20474;-66
2021/07/06 00:18:31;;;;;;;3.20;2.67;;;22.10;99.90;;;;;;5069625;28;20812;-66
2021/07/06 00:21:00;;;;;;;3.20;2.90;;;22.10;99.90;;;;;;5063812;28;20995;-65
2021/07/06 00:23:28;;;;;;;2.80;2.60;;;22.10;99.90;;;;;;5064986;28;20463;-65
2021/07/06 00:25:56;;;;;;;3.47;3.17;;;22.10;99.90;;;;;;5068065;28;20478;-65
2021/07/06 00:28:24;;;;;;;3.57;3.27;;;22.10;99.90;;;;;;5067785;28;20494;-65
2021/07/06 00:30:51;;;;;;;3.40;3.10;;;22.10;99.90;;;;;;5064468;28;20462;-66
2021/07/06 00:33:18;;;;;;;3.30;3.00;;;22.10;99.90;;;;;;5071487;28;20473;-66
2021/07/06 00:35:45;;;;;;;3.80;3.20;;;22.00;99.90;;;;;;5067424;28;20481;-66
2021/07/06 00:38:12;;;;;;;3.40;3.10;;;22.10;99.90;;;;;;5057030;28;20475;-65
2021/07/06 00:40:41;;;;;;;3.57;3.23;;;22.10;99.90;;;;;;5070356;28;20960;-66
2021/07/06 00:43:09;;;;;;;3.80;3.20;;;22.00;99.90;;;;;;5063478;28;20462;-66
2021/07/06 00:45:36;;;;;;;3.57;3.27;;;22.00;99.90;;;;;;5069622;28;20459;-66
2021/07/06 00:48:03;;;;;;;3.00;2.80;;;22.00;99.90;;;;;;5066003;28;20478;-66
2021/07/06 00:50:31;;;;;;;4.73;3.10;;;22.00;99.90;;;;;;5067170;28;20478;-66
2021/07/06 00:52:58;;;;;;;2.80;2.60;;;22.00;99.90;;;;;;5060597;28;20813;-65
2021/07/06 00:55:25;;;;;;;3.20;2.80;;;22.10;99.90;;;;;;5068322;28;20498;-66
2021/07/06 00:57:52;;;;;;;5.83;5.23;;;22.10;99.90;;;;;;5071202;28;20470;-66
2021/07/06 01:00:23;;;;;;;4.67;4.17;;;22.10;99.90;;;;;;5066006;28;20467;-66
2021/07/06 01:02:51;;;;;;;3.40;3.10;;;22.10;99.90;;;;;;5053437;28;20463;-66
2021/07/06 01:05:21;;;;;;;3.00;2.80;;;22.10;99.90;;;;;;5068930;28;20964;-66
2021/07/06 01:07:49;;;;;;;3.67;3.37;;;22.10;99.90;;;;;;5064610;28;20486;-66
2021/07/06 01:10:17;;;;;;;6.23;2.97;;;22.10;99.90;;;;;;5069487;28;20789;-66
2021/07/06 01:12:45;;;;;;;3.60;3.40;;;22.10;99.90;;;;;;5062009;28;20794;-66
2021/07/06 01:15:14;;;;;;;3.50;3.20;;;22.10;99.90;;;;;;5069287;28;20482;-66
2021/07/06 01:17:44;;;;;;;3.40;3.17;;;22.10;99.90;;;;;;5070672;28;20466;-66
2021/07/06 01:20:14;;;;;;;4.50;3.80;;;22.10;99.90;;;;;;5066492;28;20546;-66
2021/07/06 01:22:44;;;;;;;4.17;3.40;;;22.10;99.90;;;;;;5055053;28;20479;-66
2021/07/06 01:25:13;;;;;;;3.87;3.57;;;22.10;99.90;;;;;;5055233;28;20466;-66
2021/07/06 01:27:40;;;;;;;3.63;3.43;;;22.10;99.90;;;;;;5054598;28;20836;-65
2021/07/06 01:30:15;;;;;;;3.80;3.10;;;22.10;99.90;;;;;;5054799;28;20467;-65
2021/07/06 01:32:44;;;;;;;3.80;2.93;;;22.10;99.90;;;;;;5053646;28;20493;-66
2021/07/06 01:35:12;;;;;;;3.60;3.30;;;22.10;99.90;;;;;;5055001;28;20467;-65
2021/07/06 01:37:45;;;;;;;2.83;2.63;;;22.10;99.90;;;;;;5072191;28;20454;-65
2021/07/06 01:40:12;;;;;;;3.90;3.60;;;22.00;99.90;;;;;;5074971;28;20469;-65
2021/07/06 01:42:39;;;;;;;3.90;3.70;;;22.00;99.90;;;;;;5069678;28;20478;-65
2021/07/06 01:45:10;;;;;;;4.67;3.67;;;22.00;99.90;;;;;;5054809;28;20471;-65
2021/07/06 01:47:38;;;;;;;2.90;2.70;;;22.00;99.90;;;;;;5060466;28;20487;-65
2021/07/06 01:50:07;;;;;;;3.10;2.90;;;22.00;99.90;;;;;;5074790;28;20494;-65
2021/07/06 01:52:34;;;;;;;3.37;2.93;;;22.00;99.90;;;;;;5056561;28;20574;-65
2021/07/06 01:55:03;;;;;;;2.93;2.70;;;21.90;99.90;;;;;;5054571;28;20759;-65
2021/07/06 01:57:30;;;;;;;3.00;2.67;;;21.90;99.90;;;;;;5054933;28;20471;-65
2021/07/06 01:59:57;;;;;;;3.27;3.00;;;21.90;99.90;;;;;;5057095;28;20792;-64
2021/07/06 02:02:23;;;;;;;3.57;3.10;;;21.90;99.90;;;;;;5060988;28;20482;-65
2021/07/06 02:04:51;;;;;;;3.63;3.33;;;21.90;99.90;;;;;;5051708;28;20497;-64
2021/07/06 02:07:19;;;;;;;3.10;2.90;;;21.90;99.90;;;;;;5065114;28;20532;-67
2021/07/06 02:09:46;;;;;;;3.80;3.50;;;21.90;99.90;;;;;;5053834;28;21269;-65
2021/07/06 02:12:14;;;;;;;4.10;3.80;;;21.90;99.90;;;;;;5054333;28;20756;-67
2021/07/06 02:14:41;;;;;;;3.00;2.80;;;21.90;99.90;;;;;;5054801;28;20509;-65
2021/07/06 02:17:08;;;;;;;2.80;2.60;;;21.90;99.90;;;;;;5054143;28;20490;-66
2021/07/06 02:19:35;;;;;;;3.33;3.03;;;21.90;99.90;;;;;;5053481;28;20474;-64
2021/07/06 02:22:01;;;;;;;2.90;2.70;;;21.80;99.90;;;;;;5059041;28;20473;-67
2021/07/06 02:24:28;;;;;;;2.70;2.50;;;21.80;99.90;;;;;;5063028;28;20466;-66
2021/07/06 02:26:57;;;;;;;2.83;2.63;;;21.80;99.90;;;;;;5062929;28;20459;-66
2021/07/06 02:29:25;;;;;;;2.23;2.13;;;21.80;99.90;;;;;;5067719;28;20477;-66
2021/07/06 02:31:52;;;;;;;3.00;2.80;;;21.80;99.90;;;;;;5067217;28;20546;-67
2021/07/06 02:34:19;;;;;;;2.53;2.33;;;21.80;99.90;;;;;;5057550;28;20464;-65
2021/07/06 02:36:46;;;;;;;2.20;2.10;;;21.80;99.90;;;;;;5052353;28;20455;-64
2021/07/06 02:39:13;;;;;;;2.37;2.17;;;21.80;99.90;;;;;;5052938;28;20475;-65
2021/07/06 02:41:40;;;;;;;2.83;2.53;;;21.80;99.90;;;;;;5056173;28;20463;-65
2021/07/06 02:44:10;;;;;;;3.13;2.30;;;21.80;99.90;;;;;;5072366;28;20466;-65
2021/07/06 02:46:38;;;;;;;3.07;2.80;;;21.80;99.90;;;;;;5071778;28;20825;-64
2021/07/06 02:49:05;;;;;;;2.80;2.60;;;21.80;99.90;;;;;;5068367;28;20484;-65
2021/07/06 02:51:33;;;;;;;3.70;3.40;;;21.80;99.90;;;;;;5057940;28;20505;-65
2021/07/06 02:53:59;;;;;;;3.43;3.13;;;21.80;99.90;;;;;;5052927;28;20809;-64
2021/07/06 02:56:26;;;;;;;3.60;2.97;;;21.80;99.90;;;;;;5061592;28;20471;-65
2021/07/06 02:58:54;;;;;;;4.90;3.40;;;21.80;99.90;;;;;;5062003;28;20755;-64
2021/07/06 03:01:21;;;;;;;5.00;4.07;;;21.80;99.90;;;;;;5073299;28;20476;-65
2021/07/06 03:03:49;;;;;;;2.90;2.70;;;21.80;99.90;;;;;;5052412;28;20452;-65
2021/07/06 03:06:16;;;;;;;3.23;2.93;;;21.80;99.90;;;;;;5053299;28;20471;-65
2021/07/06 03:08:43;;;;;;;3.47;3.23;;;21.80;99.90;;;;;;5060985;28;20478;-65
2021/07/06 03:11:10;;;;;;;3.13;2.93;;;21.80;99.90;;;;;;5058783;28;20472;-65
2021/07/06 03:13:37;;;;;;;4.10;2.83;;;21.80;99.90;;;;;;5051940;28;20977;-65
2021/07/06 03:16:04;;;;;;;3.33;3.13;;;21.80;99.90;;;;;;5054458;28;20470;-65
2021/07/06 03:18:31;;;;;;;3.07;2.87;;;21.80;99.90;;;;;;5063174;28;20471;-65
2021/07/06 03:20:59;;;;;;;2.87;2.63;;;21.80;99.90;;;;;;5058808;28;20461;-65
2021/07/06 03:23:28;;;;;;;3.53;3.33;;;21.80;99.90;;;;;;5051080;28;20961;-65
2021/07/06 03:25:55;;;;;;;3.43;3.13;;;21.80;99.90;;;;;;5070744;28;20478;-65
2021/07/06 03:28:22;;;;;;;3.60;3.30;;;21.80;99.90;;;;;;5058558;28;20475;-65
2021/07/06 03:30:49;;;;;;;3.60;3.30;;;21.70;99.90;;;;;;5064910;28;20953;-65
2021/07/06 03:33:16;;;;;;;4.43;3.50;;;21.70;99.90;;;;;;5064740;28;20473;-65
2021/07/06 03:35:43;;;;;;;2.90;2.70;;;21.70;99.90;;;;;;5055933;28;20467;-65
2021/07/06 03:38:12;;;;;;;3.73;3.53;;;21.70;99.90;;;;;;5052219;28;20499;-65
2021/07/06 03:40:38;;;;;;;3.90;3.60;;;21.70;99.90;;;;;;5053811;28;20475;-65
2021/07/06 03:43:08;;;;;;;3.20;3.00;;;21.70;99.90;;;;;;5053035;28;20474;-65
2021/07/06 03:45:35;;;;;;;3.20;3.00;;;21.70;99.90;;;;;;5061401;28;20490;-65
2021/07/06 03:48:02;;;;;;;3.60;3.30;;;21.70;99.90;;;;;;5065682;28;20851;-65
2021/07/06 03:50:29;;;;;;;2.70;2.60;;;21.70;99.90;;;;;;5056142;28;20479;-64
2021/07/06 03:52:57;;;;;;;4.80;3.30;;;21.70;99.90;;;;;;5051838;28;20474;-65
2021/07/06 03:55:27;;;;;;;3.80;3.50;;;21.70;99.90;;;;;;5050404;28;20467;-65
2021/07/06 03:57:54;;;;;;;3.67;3.37;;;21.80;99.90;;;;;;5051168;28;21259;-65
2021/07/06 04:00:25;;;;;;;2.83;2.67;;;21.70;99.90;;;;;;5052547;28;20790;-65
2021/07/06 04:02:52;;;;;;;3.40;3.00;;;21.80;99.90;;;;;;5055017;28;20562;-65
2021/07/06 04:05:19;;;;;;;3.47;3.23;;;21.80;99.90;;;;;;5070595;28;20478;-65
2021/07/06 04:07:47;;;;;;;2.97;2.77;;;21.80;99.90;;;;;;5060729;28;20520;-65
2021/07/06 04:10:17;;;;;;;3.17;2.97;;;21.80;99.90;;;;;;5070704;28;20470;-65
2021/07/06 04:12:45;;;;;;;4.03;3.60;;;21.80;99.90;;;;;;5072192;28;20474;-65
2021/07/06 04:15:14;;;;;;;2.70;2.50;;;21.80;99.90;;;;;;5072331;28;20541;-65
2021/07/06 04:17:41;;;;;;;2.90;2.70;;;21.90;99.90;;;;;;5071572;28;20474;-65
2021/07/06 04:20:10;;;;;;;2.70;2.60;;;21.90;99.90;;;;;;5072650;28;20458;-64
2021/07/06 04:22:37;;;;;;;3.50;3.20;;;21.90;99.90;;;;;;5071962;28;20466;-64
2021/07/06 04:25:06;;;;;;;2.40;2.20;;;22.00;99.90;;;;;;5072498;28;20963;-65
2021/07/06 04:27:33;;;;;;;3.10;2.83;;;22.00;99.90;;;;;;5071935;28;20475;-65
2021/07/06 04:30:01;;;;;;;3.83;2.90;;;22.00;99.90;;;;;;5072275;28;20461;-65
2021/07/06 04:32:28;;;;;;;3.00;2.70;;;22.10;99.90;;;;;;5072137;28;20948;-65
2021/07/06 04:34:55;;;;;;;3.17;2.97;;;22.10;99.90;;;;;;5071998;28;20458;-65
2021/07/06 04:37:22;;;;;;;3.30;3.10;;;22.10;99.90;;;;;;5072315;28;20975;-65
2021/07/06 04:39:49;;;;;;;3.23;3.03;;;22.10;99.90;;;;;;5071892;28;20478;-65
2021/07/06 04:42:16;;;;;;;3.60;3.30;;;22.10;99.90;;;;;;5072321;28;20466;-65
2021/07/06 04:44:44;;;;;;;3.23;3.03;;;22.10;99.90;;;;;;5071825;28;20542;-65
2021/07/06 04:47:12;;;;;;;3.27;3.07;;;22.10;99.90;;;;;;5072310;28;20480;-64
2021/07/06 04:49:39;;;;;;;5.17;3.17;;;22.10;99.90;;;;;;5052053;28;20459;-64
2021/07/06 04:52:07;;;;;;;2.80;2.60;;;22.00;99.90;;;;;;5055889;28;20953;-64
2021/07/06 04:54:34;;;;;;;3.20;2.67;;;22.00;99.90;;;;;;5055548;28;20573;-64
2021/07/06 04:57:02;;;;;;;3.07;2.87;;;22.00;99.90;;;;;;5055959;28;20473;-65
2021/07/06 04:59:29;;;;;;;3.27;3.07;;;22.10;99.90;;;;;;5055774;28;20518;-64
2021/07/06 05:01:56;;;;;;;2.90;2.70;;;22.10;99.90;;;;;;5055370;28;20463;-65
2021/07/06 05:04:25;;;;;;;3.40;3.20;;;22.10;99.90;;;;;;5055905;28;20463;-64
2021/07/06 05:06:52;;;;;;;2.97;2.77;;;22.10;99.90;;;;;;5066757;28;20535;-65
2021/07/06 05:09:19;;;;;;;3.20;2.97;;;22.20;99.90;;;;;;5074484;28;20474;-65
2021/07/06 05:11:46;;;;;;;3.13;2.93;;;22.20;99.90;;;;;;5074930;28;20524;-65
2021/07/06 05:14:13;;;;;;;3.57;3.37;;;22.20;99.90;;;;;;5074470;28;20949;-65
2021/07/06 05:16:40;;;;;;;2.70;2.50;;;22.30;99.90;;;;;;5074715;28;20804;-64
2021/07/06 05:19:07;;;;;;;3.53;3.20;;;22.30;99.90;;;;;;5075267;28;20527;-65
2021/07/06 05:21:37;;;;;;;3.37;3.17;;;22.30;99.90;;;;;;5075059;28;20555;-65
2021/07/06 05:24:05;;;;;;;3.20;3.00;;;22.40;99.90;;;;;;5075272;28;20462;-65
2021/07/06 05:26:32;;;;;;;2.93;2.73;;;22.40;99.90;;;;;;5074985;28;20474;-65
2021/07/06 05:28:59;;;;;;;3.40;3.00;;;22.40;99.90;;;;;;5068010;28;20472;-64
2021/07/06 05:31:26;;;;;;;2.17;2.07;;;22.40;99.90;;;;;;5067140;28;20482;-65
2021/07/06 05:33:52;;;;;;;3.67;2.47;;;22.50;99.90;;;;;;5067750;28;20558;-65
2021/07/06 05:36:19;;;;;;;3.63;3.23;;;22.50;99.90;;;;;;5059035;28;20878;-64
2021/07/06 05:38:48;;;;;;;2.83;2.63;;;22.50;99.90;;;;;;5066613;28;20485;-64
2021/07/06 05:41:16;;;;;;;2.83;2.63;;;22.60;99.90;;;;;;5071680;28;20963;-65
2021/07/06 05:43:43;;;;;;;6.80;6.20;;;22.60;99.90;;;;;;5072058;28;20489;-65
2021/07/06 05:46:10;;;;;;;8.00;5.70;;;22.70;99.90;;;;;;5056615;28;20470;-65
2021/07/06 05:48:37;;;;;;;5.60;4.90;;;22.80;99.90;;;;;;5067596;28;20470;-65
2021/07/06 05:51:04;;;;;;;4.90;4.23;;;22.90;99.90;;;;;;5074556;28;20838;-65
2021/07/06 05:53:31;;;;;;;2.90;2.70;;;22.90;99.90;;;;;;5073839;28;20983;-65
2021/07/06 05:56:00;;;;;;;2.93;2.73;;;23.00;99.90;;;;;;5072063;28;20769;-65
2021/07/06 05:58:27;;;;;;;3.30;2.97;;;23.20;99.90;;;;;;5074188;28;20474;-64
2021/07/06 06:00:54;;;;;;;4.87;2.90;;;23.30;99.90;;;;;;5073855;28;21041;-65
2021/07/06 06:03:21;;;;;;;2.77;2.57;;;23.40;99.90;;;;;;5065883;28;20474;-65
2021/07/06 06:05:47;;;;;;;2.93;2.20;;;23.50;99.90;;;;;;5057469;28;20463;-65
2021/07/06 06:08:15;;;;;;;2.77;2.57;;;23.60;99.90;;;;;;5066206;28;20485;-65
2021/07/06 06:10:42;;;;;;;2.80;2.60;;;23.70;99.90;;;;;;5056715;28;20467;-65
2021/07/06 06:13:11;;;;;;;4.63;3.57;;;23.80;99.90;;;;;;5054255;28;20455;-65
2021/07/06 06:15:38;;;;;;;8.03;4.90;;;23.90;99.90;;;;;;5053936;28;20645;-64
2021/07/06 06:18:05;;;;;;;6.10;4.00;;;24.00;99.90;;;;;;5053429;28;20521;-65
2021/07/06 06:20:32;;;;;;;3.20;3.00;;;24.20;99.90;;;;;;5054169;28;20813;-64
2021/07/06 06:22:59;;;;;;;4.40;3.80;;;24.30;99.90;;;;;;5071179;28;20793;-64
2021/07/06 06:25:26;;;;;;;5.93;2.87;;;24.40;99.90;;;;;;5074146;28;20462;-65
2021/07/06 06:27:54;;;;;;;2.20;2.10;;;24.60;99.90;;;;;;5073549;28;20466;-65
2021/07/06 06:30:23;;;;;;;2.40;2.30;;;24.70;99.90;;;;;;5073894;28;20475;-64
2021/07/06 06:32:51;;;;;;;5.30;4.90;;;24.80;99.90;;;;;;5068832;28;20473;-64
2021/07/06 06:35:19;;;;;;;2.87;2.67;;;25.00;99.90;;;;;;5073782;28;20535;-65
2021/07/06 06:37:46;;;;;;;2.37;2.07;;;25.20;99.90;;;;;;5073193;28;20470;-64
2021/07/06 06:40:14;;;;;;;2.37;2.20;;;25.40;99.70;;;;;;5057685;28;20474;-62
2021/07/06 06:42:42;;;;;;;2.27;2.07;;;25.50;99.30;;;;;;5053645;28;20467;-63
2021/07/06 06:45:11;;;;;;;3.00;2.20;;;25.70;99.00;;;;;;5062462;28;20465;-64
2021/07/06 06:47:40;;;;;;;2.20;2.00;;;25.90;98.20;;;;;;5073255;28;20470;-64
2021/07/06 06:50:10;;;;;;;1.80;1.70;;;26.00;98.00;;;;;;5063562;28;20466;-64
2021/07/06 06:52:37;;;;;;;1.97;1.77;;;26.20;97.90;;;;;;5053161;28;20476;-64
2021/07/06 06:55:07;;;;;;;2.57;2.37;;;26.30;97.80;;;;;;5053038;28;20466;-64
2021/07/06 06:57:34;;;;;;;1.90;1.50;;;26.60;97.90;;;;;;5054979;28;20472;-65
2021/07/06 07:00:04;;;;;;;2.10;2.00;;;26.70;96.60;;;;;;5072785;28;20489;-64
2021/07/06 07:02:32;;;;;;;3.77;1.80;;;26.80;96.10;;;;;;5073180;28;20490;-64
2021/07/06 07:05:00;;;;;;;2.33;1.80;;;26.90;95.40;;;;;;5072846;28;20972;-63
2021/07/06 07:07:28;;;;;;;2.40;1.57;;;27.10;95.30;;;;;;5073088;28;20477;-63
2021/07/06 07:09:55;;;;;;;1.70;1.60;;;27.30;95.10;;;;;;5072505;28;20470;-63
2021/07/06 07:12:22;;;;;;;2.37;1.80;;;27.30;94.70;;;;;;5072776;28;20459;-63
2021/07/06 07:14:49;;;;;;;4.60;1.60;;;27.50;94.70;;;;;;5071799;28;20478;-63
2021/07/06 07:17:17;;;;;;;2.10;1.60;;;27.60;94.30;;;;;;5072612;28;20471;-63
2021/07/06 07:19:44;;;;;;;1.80;1.70;;;27.80;94.00;;;;;;5072680;28;20473;-63
2021/07/06 07:22:13;;;;;;;2.33;1.80;;;27.80;93.30;;;;;;5072558;28;20479;-64
2021/07/06 07:24:40;;;;;;;2.20;1.63;;;28.00;93.20;;;;;;5072365;28;20547;-64
2021/07/06 07:27:08;;;;;;;2.67;1.83;;;28.10;93.00;;;;;;5072257;28;20474;-64
2021/07/06 07:29:36;;;;;;;1.90;1.80;;;28.20;93.30;;;;;;5072617;28;20478;-64
2021/07/06 07:32:05;;;;;;;1.70;1.60;;;28.30;93.00;;;;;;5069935;28;20474;-65
2021/07/06 07:34:33;;;;;;;1.97;1.87;;;28.40;92.30;;;;;;5071172;28;20476;-64
2021/07/06 07:37:00;;;;;;;1.77;1.50;;;28.40;92.20;;;;;;5071983;28;20478;-64
2021/07/06 07:39:29;;;;;;;4.40;1.53;;;28.40;92.30;;;;;;5062790;28;20794;-64
2021/07/06 07:41:56;;;;;;;2.30;2.10;;;28.40;92.30;;;;;;5052353;28;20471;-64
2021/07/06 07:44:22;;;;;;;3.80;1.83;;;28.40;92.20;;;;;;5055202;28;21018;-64
2021/07/06 07:46:49;;;;;;;2.20;1.80;;;28.50;92.30;;;;;;5071928;28;20979;-64
2021/07/06 07:49:16;;;;;;;2.10;1.90;;;28.50;92.40;;;;;;5072384;28;20470;-64
2021/07/06 07:51:44;;;;;;;2.50;1.40;;;28.60;92.20;;;;;;5072581;28;20984;-64
2021/07/06 07:54:11;;;;;;;4.63;1.80;;;28.60;91.50;;;;;;5071911;28;20463;-64
2021/07/06 07:56:41;;;;;;;2.10;1.90;;;28.60;90.40;;;;;;5072406;28;20458;-64
2021/07/06 07:59:08;;;;;;;1.50;1.20;;;28.60;90.60;;;;;;5071956;28;20500;-64
2021/07/06 08:01:35;;;;;;;3.23;1.40;;;28.60;90.50;;;;;;5072347;28;20466;-64
2021/07/06 08:04:02;;;;;;;2.40;2.20;;;28.50;90.20;;;;;;5072029;28;20647;-64
2021/07/06 08:06:29;;;;;;;2.50;1.50;;;28.50;90.30;;;;;;5071989;28;20706;-64
2021/07/06 08:08:56;;;;;;;2.03;1.80;;;28.50;90.40;;;;;;5071579;28;20497;-65
2021/07/06 08:11:23;;;;;;;2.00;1.80;;;28.50;90.30;;;;;;5072572;28;20470;-64
2021/07/06 08:13:52;;;;;;;2.10;1.70;;;28.50;90.10;;;;;;5071668;28;20474;-65
2021/07/06 08:16:18;;;;;;;2.87;1.90;;;28.60;90.10;;;;;;5058974;28;20455;-64
2021/07/06 08:18:45;;;;;;;2.10;1.90;;;28.70;90.10;;;;;;5071953;28;20471;-65
2021/07/06 08:21:12;;;;;;;3.23;2.20;;;28.80;90.00;;;;;;5062059;28;20474;-64
2021/07/06 08:23:39;;;;;;;2.33;1.60;;;28.80;88.50;;;;;;5052210;28;20475;-64
2021/07/06 08:26:06;;;;;;;2.63;2.30;;;28.90;88.60;;;;;;5068939;28;20671;-64
2021/07/06 08:28:36;;;;;;;2.80;1.50;;;29.00;88.10;;;;;;5074797;28;20470;-65
2021/07/06 08:31:04;;;;;;;2.57;2.37;;;29.00;87.30;;;;;;5076973;28;20508;-64
2021/07/06 08:33:31;;;;;;;1.73;1.63;;;29.20;87.90;;;;;;5080112;28;20461;-64
2021/07/06 08:35:58;;;;;;;3.70;2.13;;;29.30;88.00;;;;;;5075772;28;20489;-65
2021/07/06 08:38:25;;;;;;;5.07;1.90;;;29.40;88.20;;;;;;5074849;28;20473;-64
2021/07/06 08:40:52;;;;;;;1.90;1.80;;;29.40;86.70;;;;;;5057505;28;20479;-65
2021/07/06 08:43:20;;;;;;;3.63;1.83;;;29.50;86.10;;;;;;5066552;28;20454;-65
2021/07/06 08:45:47;;;;;;;2.67;2.47;;;29.50;86.50;;;;;;5063567;28;20465;-64
2021/07/06 08:48:16;;;;;;;2.43;2.23;;;29.40;85.20;;;;;;5060883;28;20467;-64
2021/07/06 08:50:45;;;;;;;3.13;2.07;;;29.50;85.50;;;;;;5063297;28;21039;-64
2021/07/06 08:53:12;;;;;;;2.13;1.83;;;29.40;85.10;;;;;;5065788;28;20509;-64
2021/07/06 08:55:39;;;;;;;1.40;1.30;;;29.40;84.80;;;;;;5055735;28;20459;-64
2021/07/06 08:58:06;;;;;;;1.97;1.80;;;29.40;84.60;;;;;;5057156;28;20474;-64
2021/07/06 09:00:33;;;;;;;2.20;2.00;;;29.40;85.10;;;;;;5063006;28;20461;-64
2021/07/06 09:03:03;;;;;;;1.60;1.50;;;29.30;83.90;;;;;;5074734;28;20480;-64
2021/07/06 09:05:33;;;;;;;1.40;1.30;;;29.30;83.20;;;;;;5070774;28;20470;-64
2021/07/06 09:08:00;;;;;;;2.07;1.90;;;29.30;83.60;;;;;;5071723;28;20478;-64
2021/07/06 09:10:29;;;;;;;9.40;8.70;;;29.20;84.00;;;;;;5056098;28;20463;-64
2021/07/06 09:12:56;;;;;;;5.57;5.17;;;29.20;84.30;;;;;;5058883;28;20944;-64
2021/07/06 09:15:28;;;;;;;4.03;3.73;;;29.30;84.00;;;;;;5066882;28;20454;-64
2021/07/06 09:18:09;;;;;;;2.93;2.20;;;29.30;84.20;;;;;;5058738;28;20471;-64
2021/07/06 09:20:38;;;;;;;1.70;1.60;;;29.20;83.60;;;;;;5057538;28;20467;-63
2021/07/06 09:23:23;;;;;;;1.87;1.67;;;29.20;83.40;;;;;;5068053;28;20509;-64
2021/07/06 09:26:05;;;;;;;4.60;2.07;;;29.10;82.70;;;;;;5070992;28;20462;-64
2021/07/06 09:28:35;;;;;;;6.70;6.20;;;29.10;83.40;;;;;;5065567;28;20481;-64
2021/07/06 09:31:15;;;;;;;5.77;5.27;;;29.00;82.40;;;;;;5072026;28;20501;-64
2021/07/06 09:33:49;;;;;;;1.60;1.50;;;28.90;83.50;;;;;;5068612;28;20489;-65
2021/07/06 09:36:32;;;;;;;2.87;2.43;;;28.90;81.80;;;;;;5074304;28;20583;-64
2021/07/06 09:39:10;;;;;;;1.83;1.60;;;28.90;82.80;;;;;;5062133;28;20459;-64
2021/07/06 09:41:38;;;;;;;3.33;1.23;;;28.90;82.50;;;;;;5063734;28;20467;-64
2021/07/06 09:44:22;;;;;;;1.90;1.80;;;28.80;82.40;;;;;;5072174;28;20469;-65
2021/07/06 09:46:55;;;;;;;1.40;1.30;;;28.90;82.90;;;;;;5058070;28;20485;-64
2021/07/06 09:49:24;;;;;;;1.37;1.27;;;28.80;81.30;;;;;;5056886;28;20968;-64
2021/07/06 09:51:53;;;;;;;1.33;1.23;;;28.80;81.70;;;;;;5059617;28;20467;-64
2021/07/06 09:54:31;;;;;;;1.57;1.30;;;28.90;82.40;;;;;;5053340;28;20503;-64
2021/07/06 09:57:06;;;;;;;1.80;1.70;;;28.90;82.60;;;;;;5053258;28;20463;-64
2021/07/06 09:59:33;;;;;;;1.80;1.70;;;28.90;83.20;;;;;;5054054;28;20470;-64
2021/07/06 10:02:03;;;;;;;1.30;1.20;;;28.90;83.20;;;;;;5061004;28;20482;-64
2021/07/06 10:04:30;;;;;;;2.90;2.70;;;28.90;82.60;;;;;;5057285;28;21015;-64
2021/07/06 10:07:00;;;;;;;2.80;2.60;;;28.90;81.30;;;;;;5064098;28;20945;-64
2021/07/06 10:09:28;;;;;;;2.57;2.27;;;28.90;82.10;;;;;;5068474;28;20466;-64
2021/07/06 10:11:55;;;;;;;3.07;2.80;;;28.80;78.40;;;;;;5071383;28;20473;-64
2021/07/06 10:14:28;;;;;;;2.07;1.60;;;28.80;79.40;;;;;;5058613;28;21122;-64
2021/07/06 10:16:55;;;;;;;2.40;2.20;;;28.80;78.60;;;;;;5066006;28;20531;-64
2021/07/06 10:19:26;;;;;;;1.50;1.40;;;28.90;80.10;;;;;;5067261;28;20975;-64
2021/07/06 10:21:53;;;;;;;2.10;1.30;;;28.90;80.90;;;;;;5073986;28;20968;-65
2021/07/06 10:24:21;;;;;;;2.10;1.20;;;28.90;79.70;;;;;;5066368;28;20929;-65
2021/07/06 10:26:54;;;;;;;2.07;1.30;;;28.90;78.10;;;;;;5073591;28;20470;-65
2021/07/06 10:29:32;;;;;;;1.40;1.30;;;28.90;78.60;;;;;;5068228;28;20482;-65
2021/07/06 10:31:59;;;;;;;1.80;1.70;;;29.00;79.30;;;;;;5071703;28;20500;-65
2021/07/06 10:34:28;;;;;;;1.30;1.20;;;29.00;79.90;;;;;;5055139;28;20809;-65
2021/07/06 10:36:58;;;;;;;1.67;1.53;;;29.00;80.20;;;;;;5059855;28;20509;-65
2021/07/06 10:39:47;;;;;;;1.67;1.33;;;29.00;79.00;;;;;;5065877;28;20467;-65
2021/07/06 10:42:14;;;;;;;1.47;1.10;;;29.00;77.10;;;;;;5053337;28;21186;-65
2021/07/06 10:44:43;;;;;;;1.30;1.20;;;29.00;76.30;;;;;;5056921;28;20561;-63
2021/07/06 10:47:35;;;;;;;2.03;1.10;;;29.00;76.60;;;;;;5053194;28;20495;-64
2021/07/06 10:50:43;;;;;;;1.60;1.37;;;29.10;77.50;;;;;;5052501;28;20496;-63
2021/07/06 10:53:18;;;;;;;1.57;1.47;;;29.10;76.50;;;;;;5052781;28;20534;-64
2021/07/06 10:55:47;;;;;;;1.63;1.10;;;29.20;77.60;;;;;;5057073;28;20507;-64
2021/07/06 10:59:04;;;;;;;1.43;1.33;;;29.10;76.10;;;;;;5064315;28;20469;-64
2021/07/06 11:01:59;;;;;;;1.30;1.20;;;29.20;75.90;;;;;;5019318;28;20464;-65
2021/07/06 11:05:04;;;;;;;1.50;1.33;;;29.20;75.80;;;;;;5029680;28;20518;-65
2021/07/06 11:07:57;;;;;;;2.10;2.00;;;29.20;75.40;;;;;;5063157;28;20477;-65
2021/07/06 11:10:43;;;;;;;2.80;1.60;;;29.20;76.00;;;;;;5066479;28;20466;-64
2021/07/06 11:13:32;;;;;;;3.00;1.37;;;29.30;76.70;;;;;;5058645;28;20540;-65
2021/07/06 11:16:01;;;;;;;2.40;0.93;;;29.30;75.20;;;;;;5062496;28;20745;-64
2021/07/06 11:18:48;;;;;;;1.30;0.83;;;29.30;73.50;;;;;;5065015;28;20971;-64
2021/07/06 11:21:36;;;;;;;1.03;0.93;;;29.40;74.40;;;;;;5063956;28;20457;-64
2021/07/06 11:24:15;;;;;;;1.97;1.00;;;29.40;73.40;;;;;;5059019;28;20470;-64
2021/07/06 11:26:44;;;;;;;2.37;1.20;;;29.40;72.50;;;;;;5071248;28;20476;-65
2021/07/06 11:29:13;;;;;;;2.60;1.40;;;29.40;72.60;;;;;;5069895;28;20532;-65
2021/07/06 11:31:40;;;;;;;1.40;1.30;;;29.40;71.70;;;;;;5070054;28;20554;-64
2021/07/06 11:34:20;;;;;;;2.07;1.00;;;29.50;72.90;;;;;;5068881;28;20862;-64
2021/07/06 11:36:47;;;;;;;1.30;1.20;;;29.60;72.80;;;;;;5070736;28;20500;-64
2021/07/06 11:39:14;;;;;;;0.90;0.90;;;29.60;72.50;;;;;;5072409;28;22687;-64
2021/07/06 11:41:42;;;;;;;1.93;1.07;;;29.70;72.30;;;;;;5070015;28;20497;-65
2021/07/06 11:44:10;;;;;;;1.20;1.10;;;29.70;72.10;;;;;;5066719;28;20510;-65
2021/07/06 11:46:38;;;;;;;1.10;1.00;;;29.70;72.00;;;;;;5057627;28;20486;-65
2021/07/06 11:49:05;;;;;;;1.20;1.07;;;29.80;70.80;;;;;;5059803;28;20864;-65
2021/07/06 11:51:39;;;;;;;1.43;1.33;;;29.70;70.80;;;;;;5067034;28;20521;-64
2021/07/06 11:54:09;;;;;;;1.27;1.17;;;29.80;71.40;;;;;;5059778;28;20491;-64
2021/07/06 11:56:38;;;;;;;2.37;1.60;;;29.80;71.70;;;;;;5064207;28;20482;-64
2021/07/06 11:59:10;;;;;;;2.23;1.53;;;29.90;72.10;;;;;;5064080;28;20518;-64
2021/07/06 12:01:39;;;;;;;2.40;1.00;;;29.90;71.30;;;;;;5053806;28;20490;-64
2021/07/06 12:04:06;;;;;;;2.50;1.17;;;29.90;70.40;;;;;;5065003;28;20474;-64
2021/07/06 12:06:32;;;;;;;1.73;1.50;;;29.90;70.00;;;;;;5072828;28;20462;-64
2021/07/06 12:09:05;;;;;;;2.27;2.10;;;29.90;70.80;;;;;;5061474;28;20478;-64
2021/07/06 12:11:32;;;;;;;2.13;1.93;;;29.90;71.80;;;;;;5061843;28;20545;-64
2021/07/06 12:14:01;;;;;;;2.50;1.43;;;29.90;70.30;;;;;;5066324;28;20967;-64
2021/07/06 12:16:30;;;;;;;1.50;1.40;;;29.90;70.40;;;;;;5069061;28;20473;-64
2021/07/06 12:19:02;;;;;;;1.70;1.60;;;29.90;69.80;;;;;;5060104;28;20524;-64
2021/07/06 12:21:30;;;;;;;2.27;1.30;;;29.90;70.40;;;;;;5064958;28;20478;-64
2021/07/06 12:23:59;;;;;;;2.20;1.40;;;29.90;71.20;;;;;;5066381;28;20979;-64
2021/07/06 12:26:28;;;;;;;2.50;1.57;;;30.00;70.60;;;;;;5068069;28;20438;-64
2021/07/06 12:28:55;;;;;;;2.27;1.80;;;30.00;71.80;;;;;;5064915;28;20520;-64
2021/07/06 12:31:27;;;;;;;2.87;2.50;;;30.10;71.30;;;;;;5057802;28;20472;-64
2021/07/06 12:34:07;;;;;;;2.10;2.00;;;30.10;71.20;;;;;;5065100;28;20961;-64
2021/07/06 12:36:37;;;;;;;5.10;2.07;;;30.10;71.00;;;;;;5069057;28;20543;-64
2021/07/06 12:39:17;;;;;;;2.27;2.07;;;30.10;70.90;;;;;;5070880;28;20478;-64
2021/07/06 12:41:46;;;;;;;2.20;1.80;;;30.10;70.90;;;;;;5068712;28;20514;-64
2021/07/06 12:44:16;;;;;;;2.80;2.60;;;30.10;69.80;;;;;;5060907;28;20471;-64
2021/07/06 12:46:43;;;;;;;4.73;4.33;;;30.00;69.60;;;;;;5060785;28;20921;-65
2021/07/06 12:49:11;;;;;;;3.47;3.17;;;30.00;70.50;;;;;;5065360;28;20471;-64
2021/07/06 12:51:58;;;;;;;4.07;2.40;;;30.00;71.00;;;;;;5067403;28;20485;-64
2021/07/06 12:54:31;;;;;;;1.87;1.60;;;30.00;69.80;;;;;;5065683;28;20482;-64
2021/07/06 12:56:58;;;;;;;1.60;1.50;;;30.00;69.30;;;;;;5060333;28;20463;-64
2021/07/06 12:59:26;;;;;;;1.47;1.37;;;30.00;68.90;;;;;;5063866;28;20809;-64